sensor_id;sensor_type;location;lat;lon;timestamp;P1;durP1;ratioP1;P2;durP2;ratioP2
13197;SDS011;6664;52.514;13.440;2022-12-18T00:01:58;23.67;;;9.30;;
13197;SDS011;6664;52.514;13.440;2022-12-18T00:04:46;21.43;;;10.23;;
13197;SDS011;6664;52.514;13.440;2022-12-18T00:07:31;13.30;;;7.43;;
13197;SDS011;6664;52.514;13.440;2022-12-18T00:10:19;21.23;;;9.10;;
13197;SDS011;6664;52.514;13.440;2022-12-18T00:13:05;18.90;;;9.00;;
13197;SDS011;6664;52.514;13.440;2022-12-18T00:15:53;21.20;;;8.80;;
13197;SDS011;6664;52.514;13.440;2022-12-18T00:18:41;19.53;;;8.87;;
13197;SDS011;6664;52.514;13.440;2022-12-18T00:21:27;12.73;;;7.80;;
13197;SDS011;6664;52.514;13.440;2022-12-18T00:24:16;15.40;;;8.50;;
13197;SDS011;6664;52.514;13.440;2022-12-18T00:27:03;16.87;;;7.20;;
13197;SDS011;6664;52.514;13.440;2022-12-18T00:29:49;19.23;;;8.77;;
13197;SDS011;6664;52.514;13.440;2022-12-18T00:32:37;15.87;;;7.70;;
13197;SDS011;6664;52.514;13.440;2022-12-18T00:35:22;13.00;;;7.50;;
13197;SDS011;6664;52.514;13.440;2022-12-18T00:38:08;16.83;;;8.20;;
13197;SDS011;6664;52.514;13.440;2022-12-18T00:40:53;23.50;;;9.17;;
13197;SDS011;6664;52.514;13.440;2022-12-18T00:43:39;15.07;;;7.70;;
13197;SDS011;6664;52.514;13.440;2022-12-18T00:46:25;15.77;;;7.40;;
13197;SDS011;6664;52.514;13.440;2022-12-18T00:49:15;17.13;;;7.67;;
13197;SDS011;6664;52.514;13.440;2022-12-18T00:52:03;17.13;;;7.90;;
13197;SDS011;6664;52.514;13.440;2022-12-18T00:54:50;19.90;;;10.13;;
13197;SDS011;6664;52.514;13.440;2022-12-18T00:57:36;22.43;;;8.87;;
13197;SDS011;6664;52.514;13.440;2022-12-18T01:00:22;10.50;;;5.80;;
13197;SDS011;6664;52.514;13.440;2022-12-18T01:03:07;15.70;;;7.83;;
13197;SDS011;6664;52.514;13.440;2022-12-18T01:05:54;16.90;;;8.00;;
13197;SDS011;6664;52.514;13.440;2022-12-18T01:08:42;16.17;;;8.43;;
13197;SDS011;6664;52.514;13.440;2022-12-18T01:11:30;19.30;;;7.07;;
13197;SDS011;6664;52.514;13.440;2022-12-18T01:14:18;17.67;;;7.33;;
13197;SDS011;6664;52.514;13.440;2022-12-18T01:17:04;13.50;;;6.80;;
13197;SDS011;6664;52.514;13.440;2022-12-18T01:19:52;20.73;;;8.97;;
13197;SDS011;6664;52.514;13.440;2022-12-18T01:22:40;11.87;;;7.90;;
13197;SDS011;6664;52.514;13.440;2022-12-18T01:25:25;13.83;;;6.60;;
13197;SDS011;6664;52.514;13.440;2022-12-18T01:28:11;12.80;;;7.13;;
13197;SDS011;6664;52.514;13.440;2022-12-18T01:31:09;20.73;;;7.93;;
13197;SDS011;6664;52.514;13.440;2022-12-18T01:34:14;15.80;;;7.80;;
13197;SDS011;6664;52.514;13.440;2022-12-18T01:37:01;15.37;;;7.40;;
13197;SDS011;6664;52.514;13.440;2022-12-18T01:39:48;17.50;;;8.73;;
13197;SDS011;6664;52.514;13.440;2022-12-18T01:42:39;15.50;;;8.23;;
13197;SDS011;6664;52.514;13.440;2022-12-18T01:45:27;17.27;;;7.80;;
13197;SDS011;6664;52.514;13.440;2022-12-18T01:48:14;25.33;;;9.03;;
13197;SDS011;6664;52.514;13.440;2022-12-18T01:50:59;18.40;;;8.00;;
13197;SDS011;6664;52.514;13.440;2022-12-18T01:53:46;23.40;;;9.20;;
13197;SDS011;6664;52.514;13.440;2022-12-18T01:56:34;16.50;;;8.47;;
13197;SDS011;6664;52.514;13.440;2022-12-18T01:59:19;20.67;;;9.47;;
13197;SDS011;6664;52.514;13.440;2022-12-18T02:02:08;21.47;;;9.83;;
13197;SDS011;6664;52.514;13.440;2022-12-18T02:04:55;19.53;;;9.70;;
13197;SDS011;6664;52.514;13.440;2022-12-18T02:13:30;30.53;;;11.40;;
13197;SDS011;6664;52.514;13.440;2022-12-18T02:17:16;27.77;;;11.90;;
13197;SDS011;6664;52.514;13.440;2022-12-18T02:24:06;23.63;;;9.93;;
13197;SDS011;6664;52.514;13.440;2022-12-18T02:26:58;34.00;;;11.97;;
13197;SDS011;6664;52.514;13.440;2022-12-18T02:29:50;29.07;;;12.27;;
13197;SDS011;6664;52.514;13.440;2022-12-18T02:32:43;27.07;;;11.70;;
13197;SDS011;6664;52.514;13.440;2022-12-18T02:35:33;28.87;;;12.10;;
13197;SDS011;6664;52.514;13.440;2022-12-18T02:38:20;30.23;;;13.27;;
13197;SDS011;6664;52.514;13.440;2022-12-18T02:41:07;28.93;;;11.60;;
13197;SDS011;6664;52.514;13.440;2022-12-18T02:43:54;27.13;;;11.20;;
13197;SDS011;6664;52.514;13.440;2022-12-18T02:46:45;32.87;;;12.90;;
13197;SDS011;6664;52.514;13.440;2022-12-18T02:56:24;32.77;;;14.07;;
13197;SDS011;6664;52.514;13.440;2022-12-18T03:01:55;27.27;;;12.60;;
13197;SDS011;6664;52.514;13.440;2022-12-18T03:07:42;29.83;;;14.97;;
13197;SDS011;6664;52.514;13.440;2022-12-18T03:11:10;30.20;;;11.97;;
13197;SDS011;6664;52.514;13.440;2022-12-18T03:14:00;27.57;;;12.20;;
13197;SDS011;6664;52.514;13.440;2022-12-18T03:16:47;31.17;;;12.07;;
13197;SDS011;6664;52.514;13.440;2022-12-18T03:19:35;28.63;;;11.70;;
13197;SDS011;6664;52.514;13.440;2022-12-18T03:22:24;27.40;;;11.17;;
13197;SDS011;6664;52.514;13.440;2022-12-18T03:25:16;25.50;;;11.10;;
13197;SDS011;6664;52.514;13.440;2022-12-18T03:28:04;17.50;;;10.20;;
13197;SDS011;6664;52.514;13.440;2022-12-18T03:30:56;27.17;;;10.80;;
13197;SDS011;6664;52.514;13.440;2022-12-18T03:33:52;23.03;;;10.30;;
13197;SDS011;6664;52.514;13.440;2022-12-18T03:36:39;22.87;;;10.43;;
13197;SDS011;6664;52.514;13.440;2022-12-18T03:39:27;18.20;;;9.10;;
13197;SDS011;6664;52.514;13.440;2022-12-18T03:42:25;24.10;;;10.97;;
13197;SDS011;6664;52.514;13.440;2022-12-18T03:45:37;26.83;;;10.53;;
13197;SDS011;6664;52.514;13.440;2022-12-18T03:48:38;22.07;;;10.13;;
13197;SDS011;6664;52.514;13.440;2022-12-18T03:51:35;23.00;;;8.27;;
13197;SDS011;6664;52.514;13.440;2022-12-18T03:54:37;25.70;;;10.60;;
13197;SDS011;6664;52.514;13.440;2022-12-18T03:57:28;22.70;;;9.10;;
13197;SDS011;6664;52.514;13.440;2022-12-18T04:00:15;20.53;;;9.03;;
13197;SDS011;6664;52.514;13.440;2022-12-18T04:03:02;13.87;;;8.30;;
13197;SDS011;6664;52.514;13.440;2022-12-18T04:05:51;24.83;;;10.67;;
13197;SDS011;6664;52.514;13.440;2022-12-18T04:08:41;17.23;;;7.67;;
13197;SDS011;6664;52.514;13.440;2022-12-18T04:11:27;21.37;;;8.90;;
13197;SDS011;6664;52.514;13.440;2022-12-18T04:14:13;17.60;;;9.13;;
13197;SDS011;6664;52.514;13.440;2022-12-18T04:17:02;18.80;;;9.10;;
13197;SDS011;6664;52.514;13.440;2022-12-18T04:19:50;16.20;;;8.10;;
13197;SDS011;6664;52.514;13.440;2022-12-18T04:22:36;18.43;;;8.70;;
13197;SDS011;6664;52.514;13.440;2022-12-18T04:25:25;25.83;;;9.30;;
13197;SDS011;6664;52.514;13.440;2022-12-18T04:28:12;19.63;;;8.47;;
13197;SDS011;6664;52.514;13.440;2022-12-18T04:30:58;17.80;;;8.23;;
13197;SDS011;6664;52.514;13.440;2022-12-18T04:33:44;20.03;;;8.57;;
13197;SDS011;6664;52.514;13.440;2022-12-18T04:36:32;18.30;;;9.47;;
13197;SDS011;6664;52.514;13.440;2022-12-18T04:39:17;15.10;;;8.50;;
13197;SDS011;6664;52.514;13.440;2022-12-18T04:42:03;24.20;;;10.37;;
13197;SDS011;6664;52.514;13.440;2022-12-18T04:44:50;19.17;;;8.33;;
13197;SDS011;6664;52.514;13.440;2022-12-18T04:47:35;18.57;;;8.57;;
13197;SDS011;6664;52.514;13.440;2022-12-18T04:50:23;24.80;;;9.80;;
13197;SDS011;6664;52.514;13.440;2022-12-18T04:53:09;17.77;;;8.80;;
13197;SDS011;6664;52.514;13.440;2022-12-18T04:56:08;15.07;;;8.07;;
13197;SDS011;6664;52.514;13.440;2022-12-18T04:58:55;15.87;;;8.10;;
13197;SDS011;6664;52.514;13.440;2022-12-18T05:01:41;16.97;;;8.87;;
13197;SDS011;6664;52.514;13.440;2022-12-18T05:04:27;22.23;;;9.93;;
13197;SDS011;6664;52.514;13.440;2022-12-18T05:07:15;18.03;;;7.47;;
13197;SDS011;6664;52.514;13.440;2022-12-18T05:10:03;27.47;;;9.47;;
13197;SDS011;6664;52.514;13.440;2022-12-18T05:12:57;18.63;;;10.13;;
13197;SDS011;6664;52.514;13.440;2022-12-18T05:15:50;12.80;;;7.40;;
13197;SDS011;6664;52.514;13.440;2022-12-18T05:18:37;20.50;;;7.97;;
13197;SDS011;6664;52.514;13.440;2022-12-18T05:21:28;19.23;;;7.47;;
13197;SDS011;6664;52.514;13.440;2022-12-18T05:24:13;19.27;;;9.00;;
13197;SDS011;6664;52.514;13.440;2022-12-18T05:27:01;23.90;;;9.00;;
13197;SDS011;6664;52.514;13.440;2022-12-18T05:29:48;15.63;;;8.30;;
13197;SDS011;6664;52.514;13.440;2022-12-18T05:32:34;21.23;;;9.33;;
13197;SDS011;6664;52.514;13.440;2022-12-18T05:35:19;22.23;;;7.83;;
13197;SDS011;6664;52.514;13.440;2022-12-18T05:38:08;17.53;;;8.20;;
13197;SDS011;6664;52.514;13.440;2022-12-18T05:40:53;19.20;;;8.00;;
13197;SDS011;6664;52.514;13.440;2022-12-18T05:43:39;25.57;;;9.00;;
13197;SDS011;6664;52.514;13.440;2022-12-18T05:46:30;24.57;;;8.47;;
13197;SDS011;6664;52.514;13.440;2022-12-18T05:49:16;23.37;;;9.83;;
13197;SDS011;6664;52.514;13.440;2022-12-18T05:52:07;23.13;;;9.37;;
13197;SDS011;6664;52.514;13.440;2022-12-18T05:54:52;24.80;;;10.43;;
13197;SDS011;6664;52.514;13.440;2022-12-18T05:57:43;26.90;;;8.90;;
13197;SDS011;6664;52.514;13.440;2022-12-18T06:00:30;24.63;;;10.67;;
13197;SDS011;6664;52.514;13.440;2022-12-18T06:03:17;22.67;;;9.40;;
13197;SDS011;6664;52.514;13.440;2022-12-18T06:06:14;22.43;;;9.90;;
13197;SDS011;6664;52.514;13.440;2022-12-18T06:09:10;24.50;;;10.57;;
13197;SDS011;6664;52.514;13.440;2022-12-18T06:11:57;18.27;;;7.63;;
13197;SDS011;6664;52.514;13.440;2022-12-18T06:14:42;30.20;;;10.40;;
13197;SDS011;6664;52.514;13.440;2022-12-18T06:17:29;21.90;;;9.67;;
13197;SDS011;6664;52.514;13.440;2022-12-18T06:20:15;34.80;;;10.27;;
13197;SDS011;6664;52.514;13.440;2022-12-18T06:23:01;22.53;;;9.63;;
13197;SDS011;6664;52.514;13.440;2022-12-18T06:25:47;23.20;;;10.10;;
13197;SDS011;6664;52.514;13.440;2022-12-18T06:28:33;24.93;;;10.30;;
13197;SDS011;6664;52.514;13.440;2022-12-18T06:31:18;25.80;;;10.47;;
13197;SDS011;6664;52.514;13.440;2022-12-18T06:34:04;26.67;;;10.10;;
13197;SDS011;6664;52.514;13.440;2022-12-18T06:36:52;19.93;;;9.73;;
13197;SDS011;6664;52.514;13.440;2022-12-18T06:39:37;26.50;;;10.07;;
13197;SDS011;6664;52.514;13.440;2022-12-18T06:42:23;24.00;;;11.30;;
13197;SDS011;6664;52.514;13.440;2022-12-18T06:45:09;27.30;;;11.40;;
13197;SDS011;6664;52.514;13.440;2022-12-18T06:48:04;27.33;;;10.17;;
13197;SDS011;6664;52.514;13.440;2022-12-18T06:50:50;28.40;;;10.90;;
13197;SDS011;6664;52.514;13.440;2022-12-18T06:53:36;22.47;;;9.93;;
13197;SDS011;6664;52.514;13.440;2022-12-18T06:56:26;21.67;;;10.30;;
13197;SDS011;6664;52.514;13.440;2022-12-18T06:59:12;20.23;;;9.57;;
13197;SDS011;6664;52.514;13.440;2022-12-18T07:01:59;26.37;;;11.93;;
13197;SDS011;6664;52.514;13.440;2022-12-18T07:04:45;24.83;;;10.47;;
13197;SDS011;6664;52.514;13.440;2022-12-18T07:07:31;23.10;;;9.03;;
13197;SDS011;6664;52.514;13.440;2022-12-18T07:10:20;23.27;;;11.93;;
13197;SDS011;6664;52.514;13.440;2022-12-18T07:13:09;28.90;;;11.10;;
13197;SDS011;6664;52.514;13.440;2022-12-18T07:15:54;23.53;;;10.50;;
13197;SDS011;6664;52.514;13.440;2022-12-18T07:18:40;23.40;;;9.90;;
13197;SDS011;6664;52.514;13.440;2022-12-18T07:21:28;22.83;;;9.73;;
13197;SDS011;6664;52.514;13.440;2022-12-18T07:24:14;30.17;;;9.90;;
13197;SDS011;6664;52.514;13.440;2022-12-18T07:26:59;14.90;;;8.17;;
13197;SDS011;6664;52.514;13.440;2022-12-18T07:29:48;24.93;;;10.23;;
13197;SDS011;6664;52.514;13.440;2022-12-18T07:32:33;19.23;;;10.57;;
13197;SDS011;6664;52.514;13.440;2022-12-18T07:35:19;24.93;;;10.83;;
13197;SDS011;6664;52.514;13.440;2022-12-18T07:38:09;26.87;;;10.47;;
13197;SDS011;6664;52.514;13.440;2022-12-18T07:41:00;22.73;;;11.17;;
13197;SDS011;6664;52.514;13.440;2022-12-18T07:43:50;21.47;;;10.40;;
13197;SDS011;6664;52.514;13.440;2022-12-18T07:46:36;25.60;;;10.30;;
13197;SDS011;6664;52.514;13.440;2022-12-18T07:49:22;25.27;;;10.30;;
13197;SDS011;6664;52.514;13.440;2022-12-18T07:52:08;18.93;;;9.20;;
13197;SDS011;6664;52.514;13.440;2022-12-18T07:54:56;18.50;;;10.13;;
13197;SDS011;6664;52.514;13.440;2022-12-18T07:57:42;19.90;;;10.47;;
13197;SDS011;6664;52.514;13.440;2022-12-18T08:00:41;19.43;;;8.93;;
13197;SDS011;6664;52.514;13.440;2022-12-18T08:03:28;21.20;;;9.10;;
13197;SDS011;6664;52.514;13.440;2022-12-18T08:06:14;20.30;;;9.10;;
13197;SDS011;6664;52.514;13.440;2022-12-18T08:09:02;22.70;;;9.67;;
13197;SDS011;6664;52.514;13.440;2022-12-18T08:11:47;25.17;;;9.33;;
13197;SDS011;6664;52.514;13.440;2022-12-18T08:14:35;19.30;;;8.80;;
13197;SDS011;6664;52.514;13.440;2022-12-18T08:17:21;18.13;;;8.47;;
13197;SDS011;6664;52.514;13.440;2022-12-18T08:20:07;17.70;;;8.87;;
13197;SDS011;6664;52.514;13.440;2022-12-18T08:22:54;18.73;;;9.10;;
13197;SDS011;6664;52.514;13.440;2022-12-18T08:25:39;19.93;;;8.00;;
13197;SDS011;6664;52.514;13.440;2022-12-18T08:28:25;18.73;;;9.90;;
13197;SDS011;6664;52.514;13.440;2022-12-18T08:31:13;18.10;;;9.30;;
13197;SDS011;6664;52.514;13.440;2022-12-18T08:33:59;22.50;;;9.70;;
13197;SDS011;6664;52.514;13.440;2022-12-18T08:36:45;16.33;;;10.13;;
13197;SDS011;6664;52.514;13.440;2022-12-18T08:39:30;18.33;;;8.23;;
13197;SDS011;6664;52.514;13.440;2022-12-18T08:42:15;18.67;;;10.10;;
13197;SDS011;6664;52.514;13.440;2022-12-18T08:45:20;17.87;;;9.40;;
13197;SDS011;6664;52.514;13.440;2022-12-18T08:48:06;19.73;;;8.30;;
13197;SDS011;6664;52.514;13.440;2022-12-18T08:50:54;18.10;;;8.00;;
13197;SDS011;6664;52.514;13.440;2022-12-18T08:53:41;17.57;;;8.83;;
13197;SDS011;6664;52.514;13.440;2022-12-18T08:56:27;18.93;;;9.23;;
13197;SDS011;6664;52.514;13.440;2022-12-18T08:59:12;18.60;;;9.00;;
13197;SDS011;6664;52.514;13.440;2022-12-18T09:02:03;19.73;;;8.10;;
13197;SDS011;6664;52.514;13.440;2022-12-18T09:04:52;18.37;;;8.50;;
13197;SDS011;6664;52.514;13.440;2022-12-18T09:07:41;15.37;;;8.13;;
13197;SDS011;6664;52.514;13.440;2022-12-18T09:10:27;21.07;;;10.50;;
13197;SDS011;6664;52.514;13.440;2022-12-18T09:13:15;17.43;;;8.90;;
13197;SDS011;6664;52.514;13.440;2022-12-18T09:16:02;19.97;;;9.00;;
13197;SDS011;6664;52.514;13.440;2022-12-18T09:18:48;19.03;;;9.00;;
13197;SDS011;6664;52.514;13.440;2022-12-18T09:21:34;12.83;;;7.50;;
13197;SDS011;6664;52.514;13.440;2022-12-18T09:24:32;16.43;;;7.50;;
13197;SDS011;6664;52.514;13.440;2022-12-18T09:27:18;19.87;;;8.53;;
13197;SDS011;6664;52.514;13.440;2022-12-18T09:30:09;13.40;;;7.10;;
13197;SDS011;6664;52.514;13.440;2022-12-18T09:32:55;19.77;;;9.20;;
13197;SDS011;6664;52.514;13.440;2022-12-18T09:35:45;15.80;;;7.30;;
13197;SDS011;6664;52.514;13.440;2022-12-18T09:38:30;17.30;;;8.43;;
13197;SDS011;6664;52.514;13.440;2022-12-18T09:44:36;20.40;;;10.30;;
13197;SDS011;6664;52.514;13.440;2022-12-18T09:47:34;19.27;;;10.10;;
13197;SDS011;6664;52.514;13.440;2022-12-18T09:50:26;20.40;;;9.43;;
13197;SDS011;6664;52.514;13.440;2022-12-18T09:53:24;17.93;;;8.47;;
13197;SDS011;6664;52.514;13.440;2022-12-18T09:56:16;22.63;;;10.33;;
13197;SDS011;6664;52.514;13.440;2022-12-18T09:59:03;20.50;;;8.50;;
13197;SDS011;6664;52.514;13.440;2022-12-18T10:01:50;18.23;;;8.50;;
13197;SDS011;6664;52.514;13.440;2022-12-18T10:04:36;17.73;;;8.50;;
13197;SDS011;6664;52.514;13.440;2022-12-18T10:07:27;18.10;;;8.73;;
13197;SDS011;6664;52.514;13.440;2022-12-18T10:13:29;22.73;;;10.57;;
13197;SDS011;6664;52.514;13.440;2022-12-18T10:26:04;23.10;;;9.93;;
13197;SDS011;6664;52.514;13.440;2022-12-18T10:28:51;16.30;;;8.13;;
13197;SDS011;6664;52.514;13.440;2022-12-18T10:31:40;16.07;;;9.40;;
13197;SDS011;6664;52.514;13.440;2022-12-18T10:34:29;18.30;;;9.90;;
13197;SDS011;6664;52.514;13.440;2022-12-18T10:37:18;19.10;;;9.07;;
13197;SDS011;6664;52.514;13.440;2022-12-18T10:40:07;23.03;;;9.23;;
13197;SDS011;6664;52.514;13.440;2022-12-18T10:43:16;20.10;;;9.20;;
13197;SDS011;6664;52.514;13.440;2022-12-18T10:51:39;19.97;;;10.60;;
13197;SDS011;6664;52.514;13.440;2022-12-18T10:54:29;21.23;;;9.33;;
13197;SDS011;6664;52.514;13.440;2022-12-18T10:57:29;24.93;;;10.70;;
13197;SDS011;6664;52.514;13.440;2022-12-18T11:03:28;21.47;;;9.40;;
13197;SDS011;6664;52.514;13.440;2022-12-18T11:06:18;21.53;;;10.13;;
13197;SDS011;6664;52.514;13.440;2022-12-18T11:09:22;20.43;;;9.67;;
13197;SDS011;6664;52.514;13.440;2022-12-18T11:15:03;23.90;;;9.73;;
13197;SDS011;6664;52.514;13.440;2022-12-18T11:17:49;17.23;;;9.50;;
13197;SDS011;6664;52.514;13.440;2022-12-18T11:20:38;16.07;;;9.13;;
13197;SDS011;6664;52.514;13.440;2022-12-18T11:23:24;15.00;;;9.27;;
13197;SDS011;6664;52.514;13.440;2022-12-18T11:26:13;16.03;;;8.10;;
13197;SDS011;6664;52.514;13.440;2022-12-18T16:23:36;13.63;;;7.70;;
13197;SDS011;6664;52.514;13.440;2022-12-18T16:26:23;12.43;;;6.53;;
13197;SDS011;6664;52.514;13.440;2022-12-18T16:29:14;12.70;;;8.17;;
13197;SDS011;6664;52.514;13.440;2022-12-18T16:32:00;14.70;;;8.63;;
13197;SDS011;6664;52.514;13.440;2022-12-18T16:34:45;15.83;;;8.33;;
13197;SDS011;6664;52.514;13.440;2022-12-18T16:37:31;14.90;;;8.60;;
13197;SDS011;6664;52.514;13.440;2022-12-18T16:40:17;15.07;;;8.20;;
13197;SDS011;6664;52.514;13.440;2022-12-18T16:43:03;13.07;;;7.43;;
13197;SDS011;6664;52.514;13.440;2022-12-18T16:45:49;18.13;;;7.93;;
13197;SDS011;6664;52.514;13.440;2022-12-18T16:48:36;17.63;;;7.73;;
13197;SDS011;6664;52.514;13.440;2022-12-18T16:51:21;13.73;;;7.23;;
13197;SDS011;6664;52.514;13.440;2022-12-18T16:54:07;8.10;;;6.53;;
13197;SDS011;6664;52.514;13.440;2022-12-18T16:56:58;15.00;;;6.97;;
13197;SDS011;6664;52.514;13.440;2022-12-18T16:59:44;15.33;;;7.43;;
13197;SDS011;6664;52.514;13.440;2022-12-18T17:02:30;9.67;;;6.40;;
13197;SDS011;6664;52.514;13.440;2022-12-18T17:05:17;8.70;;;6.50;;
13197;SDS011;6664;52.514;13.440;2022-12-18T17:08:03;9.93;;;7.23;;
13197;SDS011;6664;52.514;13.440;2022-12-18T17:10:49;22.53;;;9.77;;
13197;SDS011;6664;52.514;13.440;2022-12-18T17:13:34;12.90;;;7.80;;
13197;SDS011;6664;52.514;13.440;2022-12-18T17:16:20;10.67;;;7.07;;
13197;SDS011;6664;52.514;13.440;2022-12-18T17:19:06;16.80;;;8.00;;
13197;SDS011;6664;52.514;13.440;2022-12-18T17:22:01;14.33;;;7.87;;
13197;SDS011;6664;52.514;13.440;2022-12-18T17:24:47;12.93;;;7.70;;
13197;SDS011;6664;52.514;13.440;2022-12-18T17:27:33;16.10;;;8.63;;
13197;SDS011;6664;52.514;13.440;2022-12-18T17:30:18;15.70;;;8.17;;
13197;SDS011;6664;52.514;13.440;2022-12-18T17:33:05;13.27;;;7.90;;
13197;SDS011;6664;52.514;13.440;2022-12-18T17:35:53;19.73;;;8.80;;
13197;SDS011;6664;52.514;13.440;2022-12-18T17:38:48;19.27;;;9.17;;
13197;SDS011;6664;52.514;13.440;2022-12-18T17:41:38;20.50;;;9.60;;
13197;SDS011;6664;52.514;13.440;2022-12-18T17:44:23;14.33;;;7.73;;
13197;SDS011;6664;52.514;13.440;2022-12-18T17:47:09;17.40;;;9.97;;
13197;SDS011;6664;52.514;13.440;2022-12-18T17:49:55;22.07;;;9.90;;
13197;SDS011;6664;52.514;13.440;2022-12-18T17:52:44;16.37;;;8.83;;
13197;SDS011;6664;52.514;13.440;2022-12-18T17:55:30;15.20;;;9.13;;
13197;SDS011;6664;52.514;13.440;2022-12-18T17:58:17;23.53;;;9.60;;
13197;SDS011;6664;52.514;13.440;2022-12-18T18:01:05;16.73;;;9.37;;
13197;SDS011;6664;52.514;13.440;2022-12-18T18:03:54;15.00;;;8.53;;
13197;SDS011;6664;52.514;13.440;2022-12-18T18:06:40;20.20;;;10.60;;
13197;SDS011;6664;52.514;13.440;2022-12-18T18:09:25;13.00;;;8.30;;
13197;SDS011;6664;52.514;13.440;2022-12-18T18:12:11;18.13;;;9.40;;
13197;SDS011;6664;52.514;13.440;2022-12-18T18:15:16;20.23;;;8.80;;
13197;SDS011;6664;52.514;13.440;2022-12-18T18:18:02;18.60;;;10.00;;
13197;SDS011;6664;52.514;13.440;2022-12-18T18:20:51;23.80;;;10.10;;
13197;SDS011;6664;52.514;13.440;2022-12-18T18:23:38;18.07;;;8.77;;
13197;SDS011;6664;52.514;13.440;2022-12-18T18:26:28;20.63;;;9.60;;
13197;SDS011;6664;52.514;13.440;2022-12-18T18:29:22;20.00;;;10.27;;
13197;SDS011;6664;52.514;13.440;2022-12-18T18:32:13;18.50;;;9.97;;
13197;SDS011;6664;52.514;13.440;2022-12-18T18:34:58;25.90;;;10.83;;
13197;SDS011;6664;52.514;13.440;2022-12-18T18:37:46;22.17;;;10.40;;
13197;SDS011;6664;52.514;13.440;2022-12-18T18:40:35;16.63;;;9.80;;
13197;SDS011;6664;52.514;13.440;2022-12-18T18:43:20;19.70;;;10.30;;
13197;SDS011;6664;52.514;13.440;2022-12-18T18:46:06;18.47;;;10.93;;
13197;SDS011;6664;52.514;13.440;2022-12-18T18:48:52;20.80;;;11.13;;
13197;SDS011;6664;52.514;13.440;2022-12-18T18:51:41;20.40;;;11.27;;
13197;SDS011;6664;52.514;13.440;2022-12-18T18:54:28;23.23;;;10.87;;
13197;SDS011;6664;52.514;13.440;2022-12-18T18:57:15;17.27;;;10.80;;
13197;SDS011;6664;52.514;13.440;2022-12-18T19:00:06;18.73;;;10.53;;
13197;SDS011;6664;52.514;13.440;2022-12-18T19:02:53;16.10;;;11.33;;
13197;SDS011;6664;52.514;13.440;2022-12-18T19:05:48;23.70;;;12.30;;
13197;SDS011;6664;52.514;13.440;2022-12-18T19:08:40;22.40;;;10.70;;
13197;SDS011;6664;52.514;13.440;2022-12-18T19:11:28;23.47;;;11.27;;
13197;SDS011;6664;52.514;13.440;2022-12-18T19:14:32;23.63;;;11.80;;
13197;SDS011;6664;52.514;13.440;2022-12-18T19:17:17;19.10;;;10.43;;
13197;SDS011;6664;52.514;13.440;2022-12-18T19:20:05;20.37;;;10.83;;
13197;SDS011;6664;52.514;13.440;2022-12-18T19:22:56;20.00;;;10.73;;
13197;SDS011;6664;52.514;13.440;2022-12-18T19:25:44;23.10;;;11.97;;
13197;SDS011;6664;52.514;13.440;2022-12-18T19:28:30;19.20;;;10.17;;
13197;SDS011;6664;52.514;13.440;2022-12-18T19:31:16;21.40;;;10.90;;
13197;SDS011;6664;52.514;13.440;2022-12-18T19:34:09;25.60;;;11.90;;
13197;SDS011;6664;52.514;13.440;2022-12-18T19:36:57;28.77;;;10.40;;
13197;SDS011;6664;52.514;13.440;2022-12-18T19:39:48;23.33;;;11.90;;
13197;SDS011;6664;52.514;13.440;2022-12-18T19:42:42;22.70;;;11.13;;
13197;SDS011;6664;52.514;13.440;2022-12-18T19:45:29;17.30;;;9.60;;
13197;SDS011;6664;52.514;13.440;2022-12-18T19:48:15;23.07;;;10.30;;
13197;SDS011;6664;52.514;13.440;2022-12-18T19:51:04;26.23;;;11.50;;
13197;SDS011;6664;52.514;13.440;2022-12-18T19:53:52;24.23;;;10.10;;
13197;SDS011;6664;52.514;13.440;2022-12-18T19:56:43;21.10;;;10.80;;
13197;SDS011;6664;52.514;13.440;2022-12-18T19:59:28;17.70;;;9.67;;
13197;SDS011;6664;52.514;13.440;2022-12-18T20:02:16;19.30;;;10.83;;
13197;SDS011;6664;52.514;13.440;2022-12-18T20:05:08;18.47;;;10.27;;
13197;SDS011;6664;52.514;13.440;2022-12-18T20:07:55;22.67;;;10.73;;
13197;SDS011;6664;52.514;13.440;2022-12-18T20:10:40;16.63;;;7.87;;
13197;SDS011;6664;52.514;13.440;2022-12-18T20:13:29;18.77;;;10.17;;
13197;SDS011;6664;52.514;13.440;2022-12-18T20:16:14;17.70;;;11.07;;
13197;SDS011;6664;52.514;13.440;2022-12-18T20:19:00;24.10;;;10.60;;
13197;SDS011;6664;52.514;13.440;2022-12-18T20:21:50;24.07;;;10.73;;
13197;SDS011;6664;52.514;13.440;2022-12-18T20:24:36;26.73;;;11.13;;
13197;SDS011;6664;52.514;13.440;2022-12-18T20:27:22;17.03;;;9.83;;
13197;SDS011;6664;52.514;13.440;2022-12-18T20:30:08;21.20;;;9.07;;
13197;SDS011;6664;52.514;13.440;2022-12-18T20:32:56;20.13;;;9.50;;
13197;SDS011;6664;52.514;13.440;2022-12-18T20:35:41;20.70;;;9.80;;
13197;SDS011;6664;52.514;13.440;2022-12-18T20:38:28;21.90;;;9.87;;
13197;SDS011;6664;52.514;13.440;2022-12-18T20:41:18;24.03;;;11.17;;
13197;SDS011;6664;52.514;13.440;2022-12-18T20:44:06;15.43;;;9.27;;
13197;SDS011;6664;52.514;13.440;2022-12-18T20:47:07;23.73;;;10.63;;
13197;SDS011;6664;52.514;13.440;2022-12-18T20:49:52;18.90;;;10.10;;
13197;SDS011;6664;52.514;13.440;2022-12-18T20:52:40;19.70;;;10.37;;
13197;SDS011;6664;52.514;13.440;2022-12-18T20:55:25;21.07;;;10.93;;
13197;SDS011;6664;52.514;13.440;2022-12-18T20:58:11;19.70;;;10.90;;
13197;SDS011;6664;52.514;13.440;2022-12-18T21:01:06;23.43;;;10.90;;
13197;SDS011;6664;52.514;13.440;2022-12-18T21:04:03;14.13;;;8.93;;
13197;SDS011;6664;52.514;13.440;2022-12-18T21:06:51;22.37;;;10.50;;
13197;SDS011;6664;52.514;13.440;2022-12-18T21:09:44;20.40;;;10.97;;
13197;SDS011;6664;52.514;13.440;2022-12-18T21:12:30;19.27;;;9.40;;
13197;SDS011;6664;52.514;13.440;2022-12-18T21:15:32;19.60;;;10.90;;
13197;SDS011;6664;52.514;13.440;2022-12-18T21:18:17;16.70;;;9.97;;
13197;SDS011;6664;52.514;13.440;2022-12-18T21:21:03;24.93;;;9.67;;
13197;SDS011;6664;52.514;13.440;2022-12-18T21:23:49;21.97;;;10.33;;
13197;SDS011;6664;52.514;13.440;2022-12-18T21:26:35;21.23;;;10.30;;
13197;SDS011;6664;52.514;13.440;2022-12-18T21:29:29;21.70;;;9.67;;
13197;SDS011;6664;52.514;13.440;2022-12-18T21:32:18;28.73;;;10.57;;
13197;SDS011;6664;52.514;13.440;2022-12-18T21:35:04;18.70;;;9.53;;
13197;SDS011;6664;52.514;13.440;2022-12-18T21:37:50;28.90;;;10.37;;
13197;SDS011;6664;52.514;13.440;2022-12-18T21:40:38;20.80;;;10.60;;
13197;SDS011;6664;52.514;13.440;2022-12-18T21:43:23;16.70;;;9.80;;
13197;SDS011;6664;52.514;13.440;2022-12-18T21:46:35;20.93;;;10.00;;
13197;SDS011;6664;52.514;13.440;2022-12-18T21:49:28;18.30;;;9.67;;
13197;SDS011;6664;52.514;13.440;2022-12-18T21:52:13;20.00;;;9.53;;
13197;SDS011;6664;52.514;13.440;2022-12-18T21:55:02;21.53;;;9.13;;
13197;SDS011;6664;52.514;13.440;2022-12-18T21:57:53;25.37;;;10.47;;
13197;SDS011;6664;52.514;13.440;2022-12-18T22:00:41;28.13;;;9.53;;
13197;SDS011;6664;52.514;13.440;2022-12-18T22:03:32;18.23;;;8.80;;
13197;SDS011;6664;52.514;13.440;2022-12-18T22:06:18;17.70;;;8.43;;
13197;SDS011;6664;52.514;13.440;2022-12-18T22:09:09;19.50;;;10.00;;
13197;SDS011;6664;52.514;13.440;2022-12-18T22:11:57;16.90;;;9.70;;
13197;SDS011;6664;52.514;13.440;2022-12-18T22:14:42;16.20;;;9.07;;
13197;SDS011;6664;52.514;13.440;2022-12-18T22:17:28;19.40;;;8.77;;
13197;SDS011;6664;52.514;13.440;2022-12-18T22:20:16;10.80;;;7.33;;
13197;SDS011;6664;52.514;13.440;2022-12-18T22:23:04;25.27;;;10.67;;